createdAt,value
2019-03-24T00:00:07.993Z,2.27
2019-03-24T00:02:36.741Z,2.19
2019-03-24T00:05:06.407Z,2.11
2019-03-24T00:07:35.019Z,1.89
2019-03-24T00:10:04.583Z,1.89
2019-03-24T00:12:33.213Z,1.84
2019-03-24T00:15:01.886Z,1.96
2019-03-24T00:17:30.603Z,1.95
2019-03-24T00:19:59.258Z,1.97
2019-03-24T00:22:28.004Z,1.99
2019-03-24T00:24:56.702Z,1.98
2019-03-24T00:27:25.492Z,2.00
2019-03-24T00:29:57.240Z,2.02
2019-03-24T00:32:25.934Z,2.06
2019-03-24T00:34:54.627Z,2.04
2019-03-24T00:37:23.276Z,2.07
2019-03-24T00:39:52.016Z,2.00
2019-03-24T00:42:20.827Z,1.92
2019-03-24T00:44:49.433Z,1.91
2019-03-24T00:47:18.075Z,1.93
2019-03-24T00:49:46.762Z,1.99
2019-03-24T00:52:15.508Z,2.04
2019-03-24T00:54:44.222Z,2.09
2019-03-24T00:57:12.969Z,2.10
2019-03-24T00:59:41.702Z,2.12
2019-03-24T01:02:10.527Z,2.13
2019-03-24T01:04:39.235Z,2.11
2019-03-24T01:07:08.016Z,2.07
2019-03-24T01:09:36.767Z,1.98
2019-03-24T01:12:06.736Z,1.94
2019-03-24T01:14:35.457Z,1.89
2019-03-24T01:17:04.947Z,1.82
2019-03-24T01:19:33.607Z,1.18
2019-03-24T01:22:02.369Z,1.77
2019-03-24T01:24:31.057Z,1.77
2019-03-24T01:26:59.832Z,1.80
2019-03-24T01:29:28.528Z,1.81
2019-03-24T01:31:57.150Z,1.84
2019-03-24T01:34:25.939Z,1.83
2019-03-24T01:36:54.559Z,1.83
2019-03-24T01:39:23.306Z,1.84
2019-03-24T01:41:51.983Z,1.87
2019-03-24T01:44:20.744Z,1.91
2019-03-24T01:46:49.634Z,1.85
2019-03-24T01:49:18.310Z,1.79
2019-03-24T01:51:46.929Z,1.72
2019-03-24T01:54:15.605Z,1.64
2019-03-24T01:56:44.291Z,1.50
2019-03-24T01:59:13.076Z,1.47
2019-03-24T02:01:41.700Z,1.51
2019-03-24T02:04:10.455Z,1.53
2019-03-24T02:06:39.145Z,1.58
2019-03-24T02:09:08.736Z,1.60
2019-03-24T02:11:37.400Z,1.60
2019-03-24T02:14:06.271Z,1.56
2019-03-24T02:16:34.966Z,1.55
2019-03-24T02:19:03.698Z,1.55
2019-03-24T02:21:38.911Z,1.54
2019-03-24T02:24:10.207Z,1.51
2019-03-24T02:26:38.974Z,1.54
2019-03-24T02:29:07.711Z,1.52
2019-03-24T02:31:36.400Z,1.51
2019-03-24T02:34:05.260Z,1.45
2019-03-24T02:36:33.949Z,1.26
2019-03-24T02:39:02.711Z,1.23
2019-03-24T02:41:31.649Z,1.18
2019-03-24T02:44:00.404Z,1.23
2019-03-24T02:46:29.063Z,1.18
2019-03-24T02:48:57.879Z,1.03
2019-03-24T02:51:26.647Z,0.86
2019-03-24T02:53:55.509Z,0.82
2019-03-24T02:56:24.188Z,0.70
2019-03-24T02:58:52.918Z,0.66
2019-03-24T03:01:21.674Z,0.62
2019-03-24T03:03:50.394Z,0.64
2019-03-24T03:06:19.143Z,0.68
2019-03-24T03:08:47.751Z,0.70
2019-03-24T03:11:17.011Z,0.68
2019-03-24T03:13:45.834Z,-0.03
2019-03-24T03:16:14.569Z,0.57
2019-03-24T03:18:43.285Z,0.60
2019-03-24T03:21:12.191Z,0.64
2019-03-24T03:23:41.059Z,0.67
2019-03-24T03:26:09.727Z,0.66
2019-03-24T03:28:38.456Z,0.60
2019-03-24T03:31:07.236Z,0.52
2019-03-24T03:33:35.891Z,0.49
2019-03-24T03:36:05.170Z,0.46
2019-03-24T03:38:33.877Z,0.33
2019-03-24T03:41:02.577Z,0.43
2019-03-24T03:43:31.548Z,0.45
2019-03-24T03:46:00.162Z,0.48
2019-03-24T03:48:28.877Z,0.52
2019-03-24T03:50:57.713Z,0.52
2019-03-24T03:53:26.450Z,0.50
2019-03-24T03:55:55.168Z,0.50
2019-03-24T03:58:23.871Z,0.49
2019-03-24T04:00:52.688Z,0.48
2019-03-24T04:03:21.351Z,0.50
2019-03-24T04:05:50.015Z,0.61
2019-03-24T04:08:18.700Z,0.68
2019-03-24T04:10:47.410Z,0.77
2019-03-24T04:13:16.176Z,0.80
2019-03-24T04:15:45.026Z,0.83
2019-03-24T04:18:13.727Z,0.85
2019-03-24T04:20:42.543Z,0.86
2019-03-24T04:23:11.331Z,0.79
2019-03-24T04:25:40.065Z,0.66
2019-03-24T04:28:09.469Z,0.50
2019-03-24T04:30:38.261Z,0.42
2019-03-24T04:33:07.026Z,0.42
2019-03-24T04:35:35.724Z,0.48
2019-03-24T04:38:05.461Z,0.42
2019-03-24T04:40:35.068Z,0.37
2019-03-24T04:43:03.834Z,0.42
2019-03-24T04:45:32.521Z,0.47
2019-03-24T04:48:01.185Z,0.42
2019-03-24T04:50:29.865Z,0.41
2019-03-24T04:52:58.511Z,0.44
2019-03-24T04:55:27.273Z,0.49
2019-03-24T04:57:55.896Z,0.48
2019-03-24T05:00:40.959Z,0.48
2019-03-24T05:03:09.677Z,0.52
2019-03-24T05:05:40.065Z,0.63
2019-03-24T05:08:10.839Z,0.59
2019-03-24T05:10:39.554Z,0.46
2019-03-24T05:13:08.288Z,0.49
2019-03-24T05:15:37.021Z,0.58
2019-03-24T05:18:05.714Z,0.65
2019-03-24T05:20:34.478Z,0.73
2019-03-24T05:23:03.119Z,0.69
2019-03-24T05:25:31.898Z,0.78
2019-03-24T05:28:00.650Z,0.81
2019-03-24T05:30:29.407Z,0.89
2019-03-24T05:32:58.084Z,0.94
2019-03-24T05:35:26.811Z,0.97
2019-03-24T05:37:55.421Z,1.02
2019-03-24T05:40:24.004Z,1.05
2019-03-24T05:42:52.592Z,1.08
2019-03-24T05:45:21.379Z,1.14
2019-03-24T05:47:50.058Z,1.30
2019-03-24T05:50:18.767Z,1.31
2019-03-24T05:52:47.495Z,1.42
2019-03-24T05:55:16.203Z,1.61
2019-03-24T05:57:45.005Z,1.63
2019-03-24T06:00:14.624Z,1.55
2019-03-24T06:02:43.399Z,1.67
2019-03-24T06:05:12.333Z,1.82
2019-03-24T06:07:40.998Z,2.09
2019-03-24T06:10:10.033Z,2.53
2019-03-24T06:12:38.756Z,3.03
2019-03-24T06:15:10.468Z,3.51
2019-03-24T06:17:47.400Z,3.24
2019-03-24T06:20:10.930Z,2.98
2019-03-24T06:22:39.655Z,3.49
2019-03-24T06:25:08.517Z,3.70
2019-03-24T06:27:37.246Z,4.04
2019-03-24T06:30:08.447Z,4.36
2019-03-24T06:32:37.157Z,4.08
2019-03-24T06:35:09.661Z,4.03
2019-03-24T06:37:38.589Z,4.05
2019-03-24T06:40:07.418Z,4.30
2019-03-24T06:42:36.091Z,4.75
2019-03-24T06:45:07.089Z,4.57
2019-03-24T06:47:35.926Z,4.59
2019-03-24T06:50:08.010Z,4.34
2019-03-24T06:52:36.726Z,4.51
2019-03-24T06:55:16.274Z,3.90
2019-03-24T06:57:45.099Z,3.36
2019-03-24T07:00:15.296Z,4.59
2019-03-24T07:02:44.233Z,4.90
2019-03-24T07:05:13.067Z,5.35
2019-03-24T07:07:41.721Z,5.03
2019-03-24T07:10:11.307Z,5.09
2019-03-24T07:12:40.096Z,5.64
2019-03-24T07:15:10.402Z,6.14
2019-03-24T07:17:39.134Z,7.17
2019-03-24T07:20:09.294Z,7.80
2019-03-24T07:22:38.056Z,7.94
2019-03-24T07:25:24.951Z,8.26
2019-03-24T07:27:55.320Z,8.30
2019-03-24T07:30:24.092Z,8.44
2019-03-24T07:32:52.904Z,8.79
2019-03-24T07:35:21.737Z,9.20
2019-03-24T07:37:50.542Z,9.45
2019-03-24T07:40:19.415Z,9.67
2019-03-24T07:42:48.331Z,9.99
2019-03-24T07:45:17.181Z,10.06
2019-03-24T07:47:48.984Z,9.57
2019-03-24T07:50:18.978Z,8.89
2019-03-24T07:52:47.752Z,9.09
2019-03-24T07:55:16.450Z,9.76
2019-03-24T07:57:45.183Z,9.66
2019-03-24T08:00:15.952Z,9.22
2019-03-24T08:02:53.196Z,9.25
2019-03-24T08:05:21.963Z,9.27
2019-03-24T08:07:54.587Z,8.99
2019-03-24T08:10:23.945Z,8.74
2019-03-24T08:12:52.940Z,8.39
2019-03-24T08:15:38.887Z,8.25
2019-03-24T08:18:07.803Z,8.79
2019-03-24T08:20:37.106Z,9.60
2019-03-24T08:23:11.544Z,10.05
2019-03-24T08:25:40.750Z,10.11
2019-03-24T08:28:09.922Z,10.55
2019-03-24T08:30:39.401Z,10.56
2019-03-24T08:33:08.136Z,10.38
2019-03-24T08:35:37.063Z,10.07
2019-03-24T08:38:18.464Z,10.17
2019-03-24T08:40:48.065Z,10.15
2019-03-24T08:43:16.935Z,10.23
2019-03-24T08:45:45.663Z,10.60
2019-03-24T08:48:27.592Z,11.28
2019-03-24T08:50:56.351Z,11.52
2019-03-24T08:53:25.726Z,11.93
2019-03-24T08:55:54.577Z,11.51
2019-03-24T08:58:23.211Z,11.98
2019-03-24T09:00:51.965Z,11.82
2019-03-24T09:03:20.963Z,11.41
2019-03-24T09:05:49.948Z,10.96
2019-03-24T09:08:18.611Z,10.79
2019-03-24T09:10:47.262Z,10.93
2019-03-24T09:13:16.110Z,11.19
2019-03-24T09:15:44.912Z,10.43
2019-03-24T09:18:13.675Z,10.85
2019-03-24T09:20:43.510Z,10.67
2019-03-24T09:23:12.171Z,11.00
2019-03-24T09:25:40.921Z,11.13
2019-03-24T09:28:12.970Z,10.88
2019-03-24T09:30:41.727Z,10.80
2019-03-24T09:33:10.458Z,10.93
2019-03-24T09:35:39.404Z,11.02
2019-03-24T09:38:08.761Z,11.21
2019-03-24T09:40:37.665Z,10.93
2019-03-24T09:43:07.341Z,11.00
2019-03-24T09:45:36.172Z,10.48
2019-03-24T09:48:07.539Z,10.26
2019-03-24T09:50:36.360Z,10.45
2019-03-24T09:53:05.281Z,9.60
2019-03-24T09:55:37.266Z,9.40
2019-03-24T09:58:06.043Z,10.10
2019-03-24T10:00:35.489Z,10.37
2019-03-24T10:03:04.360Z,10.49
2019-03-24T10:05:33.008Z,10.33
2019-03-24T10:08:04.913Z,10.69
2019-03-24T10:10:33.620Z,10.96
2019-03-24T10:13:02.601Z,10.98
2019-03-24T10:15:31.295Z,11.05
2019-03-24T10:18:00.344Z,11.15
2019-03-24T10:20:29.154Z,11.10
2019-03-24T10:22:57.985Z,11.36
2019-03-24T10:25:26.746Z,11.66
2019-03-24T10:27:55.565Z,11.52
2019-03-24T10:30:24.289Z,12.06
2019-03-24T10:32:52.986Z,12.27
2019-03-24T10:35:21.648Z,12.04
2019-03-24T10:37:50.542Z,12.05
2019-03-24T10:40:28.091Z,11.48
2019-03-24T10:42:50.764Z,11.92
2019-03-24T10:45:23.232Z,12.20
2019-03-24T10:47:55.724Z,12.72
2019-03-24T10:50:25.655Z,12.94
2019-03-24T10:52:56.444Z,12.90
2019-03-24T10:55:25.209Z,12.86
2019-03-24T10:57:53.982Z,13.11
2019-03-24T11:00:29.113Z,13.29
2019-03-24T11:02:58.810Z,13.10
2019-03-24T11:05:28.723Z,12.68
2019-03-24T11:07:58.205Z,13.06
2019-03-24T11:10:27.778Z,13.20
2019-03-24T11:12:57.598Z,13.27
2019-03-24T11:15:27.339Z,13.32
2019-03-24T11:17:57.067Z,13.57
2019-03-24T11:20:26.763Z,13.95
2019-03-24T11:23:01.100Z,13.82
2019-03-24T11:25:43.027Z,14.15
2019-03-24T11:28:13.842Z,14.31
2019-03-24T11:30:43.509Z,14.54
2019-03-24T11:33:13.132Z,14.87
2019-03-24T11:35:42.338Z,14.85
2019-03-24T11:38:11.682Z,14.88
2019-03-24T11:40:40.692Z,15.25
2019-03-24T11:43:09.517Z,14.82
2019-03-24T11:45:38.908Z,15.35
2019-03-24T11:48:07.825Z,15.27
2019-03-24T11:50:36.945Z,15.44
2019-03-24T11:53:05.825Z,14.58
2019-03-24T11:55:36.880Z,15.10
2019-03-24T11:58:06.416Z,15.18
2019-03-24T12:00:43.532Z,14.45
2019-03-24T12:03:12.519Z,14.67
2019-03-24T12:05:41.162Z,14.54
2019-03-24T12:08:10.223Z,14.53
2019-03-24T12:10:38.933Z,14.34
2019-03-24T12:13:14.156Z,14.40
2019-03-24T12:15:43.531Z,14.61
2019-03-24T12:18:12.855Z,14.32
2019-03-24T12:20:41.812Z,14.14
2019-03-24T12:23:10.525Z,14.23
2019-03-24T12:25:39.262Z,14.63
2019-03-24T12:28:09.206Z,15.08
2019-03-24T12:30:40.256Z,15.20
2019-03-24T12:33:11.136Z,15.06
2019-03-24T12:35:39.837Z,15.36
2019-03-24T12:38:09.411Z,15.29
2019-03-24T12:40:38.167Z,15.47
2019-03-24T12:43:06.967Z,15.09
2019-03-24T12:45:36.378Z,14.65
2019-03-24T12:48:05.599Z,14.40
2019-03-24T12:50:35.182Z,13.56
2019-03-24T12:53:04.110Z,13.15
2019-03-24T12:55:32.815Z,13.03
2019-03-24T12:58:01.594Z,13.11
2019-03-24T13:00:34.766Z,13.63
2019-03-24T13:03:03.639Z,13.53
2019-03-24T13:05:32.419Z,13.83
2019-03-24T13:08:12.566Z,13.46
2019-03-24T13:10:48.242Z,13.91
2019-03-24T13:13:17.046Z,13.69
2019-03-24T13:15:54.258Z,14.22
2019-03-24T13:18:23.467Z,14.71
2019-03-24T13:20:52.150Z,15.23
2019-03-24T13:23:20.867Z,15.34
2019-03-24T13:25:50.638Z,15.72
2019-03-24T13:28:19.655Z,15.85
2019-03-24T13:30:48.388Z,15.45
2019-03-24T13:33:17.226Z,15.72
2019-03-24T13:35:46.153Z,15.32
2019-03-24T13:38:15.539Z,15.55
2019-03-24T13:40:44.153Z,15.68
2019-03-24T13:43:12.920Z,15.81
2019-03-24T13:45:41.674Z,15.35
2019-03-24T13:48:10.301Z,15.21
2019-03-24T13:50:39.010Z,15.24
2019-03-24T13:53:07.667Z,15.38
2019-03-24T13:55:36.373Z,15.71
2019-03-24T13:58:05.792Z,15.76
2019-03-24T14:00:34.542Z,15.68
2019-03-24T14:03:03.336Z,15.59
2019-03-24T14:05:32.150Z,15.69
2019-03-24T14:08:00.795Z,16.05
2019-03-24T14:10:29.555Z,15.84
2019-03-24T14:12:58.207Z,15.69
2019-03-24T14:15:26.887Z,15.79
2019-03-24T14:17:55.787Z,15.70
2019-03-24T14:20:24.660Z,15.44
2019-03-24T14:22:55.307Z,15.32
2019-03-24T14:25:23.835Z,15.32
2019-03-24T14:27:52.562Z,15.41
2019-03-24T14:30:24.245Z,15.73
2019-03-24T14:32:53.069Z,15.19
2019-03-24T14:35:21.841Z,14.98
2019-03-24T14:37:50.677Z,14.81
2019-03-24T14:40:19.435Z,14.79
2019-03-24T14:42:48.236Z,14.68
2019-03-24T14:45:16.988Z,15.00
2019-03-24T14:47:45.714Z,14.81
2019-03-24T14:50:14.578Z,14.73
2019-03-24T14:52:43.302Z,14.51
2019-03-24T14:55:12.022Z,14.72
2019-03-24T14:57:40.894Z,14.80
2019-03-24T15:00:10.886Z,15.33
2019-03-24T15:02:40.857Z,15.86
2019-03-24T15:05:10.077Z,15.63
2019-03-24T15:07:38.848Z,15.42
2019-03-24T15:10:08.162Z,15.51
2019-03-24T15:12:36.927Z,15.43
2019-03-24T15:15:07.424Z,15.70
2019-03-24T15:17:36.245Z,15.67
2019-03-24T15:20:07.328Z,15.23
2019-03-24T15:22:36.161Z,15.07
2019-03-24T15:25:08.347Z,15.00
2019-03-24T15:27:37.112Z,14.75
2019-03-24T15:30:08.544Z,14.36
2019-03-24T15:32:37.296Z,14.09
2019-03-24T15:35:07.435Z,13.85
2019-03-24T15:37:36.292Z,13.76
2019-03-24T15:40:07.762Z,13.61
2019-03-24T15:42:36.524Z,13.00
2019-03-24T15:45:07.850Z,13.61
2019-03-24T15:47:36.556Z,13.09
2019-03-24T15:50:09.066Z,13.25
2019-03-24T15:52:37.874Z,13.00
2019-03-24T15:55:07.717Z,12.60
2019-03-24T15:57:36.410Z,13.14
2019-03-24T16:00:07.814Z,13.05
2019-03-24T16:02:36.589Z,13.17
2019-03-24T16:05:06.815Z,12.98
2019-03-24T16:07:35.506Z,12.34
2019-03-24T16:10:08.152Z,12.73
2019-03-24T16:12:37.186Z,12.39
2019-03-24T16:15:08.213Z,12.29
2019-03-24T16:17:36.956Z,12.08
2019-03-24T16:20:07.279Z,12.09
2019-03-24T16:22:35.971Z,12.01
2019-03-24T16:25:07.287Z,11.88
2019-03-24T16:27:36.099Z,11.77
2019-03-24T16:30:08.425Z,11.64
2019-03-24T16:32:37.247Z,11.51
2019-03-24T16:35:07.768Z,11.42
2019-03-24T16:37:36.404Z,11.21
2019-03-24T16:40:08.306Z,10.93
2019-03-24T16:42:37.597Z,10.81
2019-03-24T16:45:06.587Z,10.77
2019-03-24T16:47:35.472Z,10.79
2019-03-24T16:50:09.450Z,10.93
2019-03-24T16:52:38.140Z,10.81
2019-03-24T16:55:07.668Z,10.91
2019-03-24T16:57:36.400Z,10.76
2019-03-24T17:00:08.400Z,10.62
2019-03-24T17:02:37.161Z,10.31
2019-03-24T17:05:07.356Z,10.43
2019-03-24T17:07:36.327Z,10.40
2019-03-24T17:10:08.052Z,10.28
2019-03-24T17:12:36.879Z,10.19
2019-03-24T17:15:08.416Z,10.07
2019-03-24T17:17:37.649Z,9.96
2019-03-24T17:20:08.417Z,9.89
2019-03-24T17:22:41.426Z,9.80
2019-03-24T17:25:11.355Z,9.58
2019-03-24T17:27:41.056Z,9.46
2019-03-24T17:30:13.310Z,9.31
2019-03-24T17:32:42.119Z,9.13
2019-03-24T17:35:11.908Z,9.04
2019-03-24T17:37:41.454Z,8.94
2019-03-24T17:40:14.832Z,8.83
2019-03-24T17:42:43.533Z,8.76
2019-03-24T17:45:14.147Z,8.69
2019-03-24T17:47:42.774Z,8.60
2019-03-24T17:50:13.895Z,8.46
2019-03-24T17:52:43.614Z,8.36
2019-03-24T17:55:12.620Z,8.26
2019-03-24T17:57:41.992Z,8.13
2019-03-24T18:00:15.057Z,8.05
2019-03-24T18:02:44.151Z,8.00
2019-03-24T18:05:16.395Z,7.91
2019-03-24T18:07:45.101Z,7.83
2019-03-24T18:10:15.358Z,7.78
2019-03-24T18:12:44.669Z,7.70
2019-03-24T18:15:13.402Z,7.62
2019-03-24T18:17:42.180Z,7.57
2019-03-24T18:20:13.894Z,7.48
2019-03-24T18:22:42.640Z,7.42
2019-03-24T18:25:11.493Z,7.34
2019-03-24T18:27:40.100Z,7.38
2019-03-24T18:30:11.332Z,7.42
2019-03-24T18:32:40.042Z,7.49
2019-03-24T18:35:11.266Z,7.54
2019-03-24T18:37:41.399Z,7.56
2019-03-24T18:40:12.581Z,7.55
2019-03-24T18:42:41.388Z,7.59
2019-03-24T18:45:12.310Z,7.69
2019-03-24T18:47:45.512Z,7.75
2019-03-24T18:50:15.235Z,7.73
2019-03-24T18:52:43.773Z,7.70
2019-03-24T18:55:12.705Z,7.60
2019-03-24T18:57:42.103Z,7.49
2019-03-24T19:00:13.729Z,7.43
2019-03-24T19:02:42.385Z,7.32
2019-03-24T19:05:12.166Z,7.27
2019-03-24T19:07:40.807Z,7.16
2019-03-24T19:10:11.625Z,7.03
2019-03-24T19:12:40.431Z,6.98
2019-03-24T19:15:13.372Z,6.90
2019-03-24T19:17:42.334Z,6.91
2019-03-24T19:20:19.558Z,6.83
2019-03-24T19:22:49.863Z,6.78
2019-03-24T19:25:18.700Z,6.78
2019-03-24T19:27:48.229Z,6.72
2019-03-24T19:30:19.702Z,6.69
2019-03-24T19:32:48.347Z,6.65
2019-03-24T19:35:17.781Z,6.58
2019-03-24T19:37:47.649Z,6.55
2019-03-24T19:40:27.605Z,6.48
2019-03-24T19:42:56.503Z,6.40
2019-03-24T19:45:25.817Z,6.36
2019-03-24T19:48:04.259Z,6.36
2019-03-24T19:50:34.694Z,6.23
2019-03-24T19:53:03.590Z,6.25
2019-03-24T19:55:41.080Z,6.19
2019-03-24T19:58:10.007Z,6.16
2019-03-24T20:00:38.890Z,6.11
2019-03-24T20:03:07.683Z,6.09
2019-03-24T20:05:36.364Z,6.06
2019-03-24T20:08:05.184Z,6.07
2019-03-24T20:10:50.628Z,5.97
2019-03-24T20:13:21.700Z,5.93
2019-03-24T20:15:50.564Z,5.88
2019-03-24T20:18:19.199Z,5.97
2019-03-24T20:20:47.952Z,5.86
2019-03-24T20:23:16.819Z,5.82
2019-03-24T20:25:45.599Z,5.82
2019-03-24T20:28:14.218Z,5.80
2019-03-24T20:30:42.908Z,5.74
2019-03-24T20:33:11.607Z,5.70
2019-03-24T20:35:40.280Z,5.66
2019-03-24T20:38:09.091Z,5.65
2019-03-24T20:40:37.689Z,5.54
2019-03-24T20:43:06.356Z,5.54
2019-03-24T20:45:35.091Z,5.47
2019-03-24T20:48:03.903Z,5.38
2019-03-24T20:50:32.670Z,5.33
2019-03-24T20:53:05.573Z,5.28
2019-03-24T20:55:34.338Z,5.29
2019-03-24T20:58:02.273Z,5.33
2019-03-24T21:00:36.377Z,5.31
2019-03-24T21:03:07.170Z,5.21
2019-03-24T21:05:36.011Z,5.10
2019-03-24T21:08:05.110Z,5.06
2019-03-24T21:10:34.102Z,4.93
2019-03-24T21:13:03.163Z,5.01
2019-03-24T21:15:32.673Z,4.97
2019-03-24T21:18:02.839Z,4.94
2019-03-24T21:20:32.438Z,4.83
2019-03-24T21:23:01.159Z,4.81
2019-03-24T21:25:32.336Z,4.71
2019-03-24T21:28:00.968Z,4.67
2019-03-24T21:30:37.857Z,4.63
2019-03-24T21:33:07.378Z,4.58
2019-03-24T21:35:48.294Z,4.53
2019-03-24T21:38:18.608Z,4.53
2019-03-24T21:40:48.199Z,4.59
2019-03-24T21:43:19.946Z,4.58
2019-03-24T21:45:48.687Z,4.60
2019-03-24T21:48:17.487Z,4.65
2019-03-24T21:50:46.227Z,4.66
2019-03-24T21:53:15.444Z,4.62
2019-03-24T21:55:45.576Z,4.54
2019-03-24T21:58:17.983Z,4.64
2019-03-24T22:00:46.683Z,4.69
2019-03-24T22:03:15.344Z,4.67
2019-03-24T22:05:44.404Z,4.68
2019-03-24T22:08:13.130Z,4.69
2019-03-24T22:10:41.771Z,4.67
2019-03-24T22:13:10.520Z,4.72
2019-03-24T22:15:39.155Z,4.69
2019-03-24T22:18:09.334Z,4.74
2019-03-24T22:20:48.455Z,4.79
2019-03-24T22:23:08.440Z,4.71
2019-03-24T22:25:37.192Z,4.68
2019-03-24T22:28:05.914Z,4.70
2019-03-24T22:30:34.766Z,4.71
2019-03-24T22:33:03.469Z,4.71
2019-03-24T22:35:32.177Z,4.71
2019-03-24T22:38:00.960Z,4.78
2019-03-24T22:40:29.667Z,4.79
2019-03-24T22:42:58.322Z,4.82
2019-03-24T22:45:26.963Z,4.84
2019-03-24T22:47:55.666Z,4.58
2019-03-24T22:50:24.426Z,4.90
2019-03-24T22:52:53.040Z,4.88
2019-03-24T22:55:21.683Z,4.81
2019-03-24T22:57:50.411Z,4.79
2019-03-24T23:00:20.960Z,4.76
2019-03-24T23:02:49.670Z,4.72
2019-03-24T23:05:18.398Z,4.80
2019-03-24T23:07:47.210Z,4.81
2019-03-24T23:10:15.926Z,4.81
2019-03-24T23:12:44.617Z,4.75
2019-03-24T23:15:13.471Z,3.42
2019-03-24T23:17:42.260Z,4.67
2019-03-24T23:20:10.901Z,4.71
2019-03-24T23:22:39.543Z,4.71
2019-03-24T23:25:08.322Z,4.72
2019-03-24T23:27:37.054Z,4.80
2019-03-24T23:30:07.841Z,4.78
2019-03-24T23:32:36.580Z,4.73
2019-03-24T23:35:06.895Z,4.83
2019-03-24T23:37:35.712Z,4.83
2019-03-24T23:40:08.704Z,4.80
2019-03-24T23:42:37.444Z,4.30
2019-03-24T23:45:07.941Z,4.83
2019-03-24T23:47:36.607Z,4.87
2019-03-24T23:50:06.709Z,4.97
2019-03-24T23:52:35.389Z,4.84
2019-03-24T23:55:04.753Z,5.08
2019-03-24T23:57:33.497Z,5.16
